sensor_id;sensor_type;location;lat;lon;timestamp;temperature;humidity
23803;DHT22;12082;51.786;6.018;2022-08-18T00:01:16;17.90;99.90
23803;DHT22;12082;51.786;6.018;2022-08-18T00:03:43;17.90;99.90
23803;DHT22;12082;51.786;6.018;2022-08-18T00:06:09;17.90;99.90
23803;DHT22;12082;51.786;6.018;2022-08-18T00:08:34;18.00;99.90
23803;DHT22;12082;51.786;6.018;2022-08-18T00:11:00;18.00;99.90
23803;DHT22;12082;51.786;6.018;2022-08-18T00:13:25;18.00;99.90
23803;DHT22;12082;51.786;6.018;2022-08-18T00:15:51;18.10;99.90
23803;DHT22;12082;51.786;6.018;2022-08-18T00:18:17;18.10;99.90
23803;DHT22;12082;51.786;6.018;2022-08-18T00:20:43;18.10;99.90
23803;DHT22;12082;51.786;6.018;2022-08-18T00:23:09;18.10;99.90
23803;DHT22;12082;51.786;6.018;2022-08-18T00:25:35;18.10;99.90
23803;DHT22;12082;51.786;6.018;2022-08-18T00:28:01;18.20;99.90
23803;DHT22;12082;51.786;6.018;2022-08-18T00:30:27;18.20;99.90
23803;DHT22;12082;51.786;6.018;2022-08-18T00:32:55;18.20;99.90
23803;DHT22;12082;51.786;6.018;2022-08-18T00:35:27;18.20;99.90
23803;DHT22;12082;51.786;6.018;2022-08-18T00:37:54;18.30;99.90
23803;DHT22;12082;51.786;6.018;2022-08-18T00:40:25;18.20;99.90
23803;DHT22;12082;51.786;6.018;2022-08-18T00:42:59;18.20;99.90
23803;DHT22;12082;51.786;6.018;2022-08-18T00:45:32;18.30;99.90
23803;DHT22;12082;51.786;6.018;2022-08-18T00:48:01;18.30;99.90
23803;DHT22;12082;51.786;6.018;2022-08-18T00:53:02;18.30;99.90
23803;DHT22;12082;51.786;6.018;2022-08-18T00:55:30;18.30;99.90
23803;DHT22;12082;51.786;6.018;2022-08-18T00:58:01;18.30;99.90
23803;DHT22;12082;51.786;6.018;2022-08-18T01:00:28;18.30;99.90
23803;DHT22;12082;51.786;6.018;2022-08-18T01:02:58;18.30;99.90
23803;DHT22;12082;51.786;6.018;2022-08-18T01:05:29;18.30;99.90
23803;DHT22;12082;51.786;6.018;2022-08-18T01:07:58;18.30;99.90
23803;DHT22;12082;51.786;6.018;2022-08-18T01:10:24;18.40;99.90
23803;DHT22;12082;51.786;6.018;2022-08-18T01:12:56;18.40;99.90
23803;DHT22;12082;51.786;6.018;2022-08-18T01:15:24;18.40;99.90
23803;DHT22;12082;51.786;6.018;2022-08-18T01:17:50;18.40;99.90
23803;DHT22;12082;51.786;6.018;2022-08-18T01:20:40;18.30;99.90
23803;DHT22;12082;51.786;6.018;2022-08-18T01:23:26;18.30;99.90
23803;DHT22;12082;51.786;6.018;2022-08-18T01:25:52;18.20;99.90
23803;DHT22;12082;51.786;6.018;2022-08-18T01:28:25;18.20;99.90
23803;DHT22;12082;51.786;6.018;2022-08-18T01:30:53;18.20;99.90
23803;DHT22;12082;51.786;6.018;2022-08-18T01:33:28;18.10;99.90
23803;DHT22;12082;51.786;6.018;2022-08-18T01:36:01;18.10;99.90
23803;DHT22;12082;51.786;6.018;2022-08-18T01:38:29;18.00;99.90
23803;DHT22;12082;51.786;6.018;2022-08-18T01:40:57;18.00;99.90
23803;DHT22;12082;51.786;6.018;2022-08-18T01:43:23;17.90;99.90
23803;DHT22;12082;51.786;6.018;2022-08-18T01:45:49;17.90;99.90
23803;DHT22;12082;51.786;6.018;2022-08-18T01:48:15;17.90;99.90
23803;DHT22;12082;51.786;6.018;2022-08-18T01:50:41;17.90;99.90
23803;DHT22;12082;51.786;6.018;2022-08-18T01:53:09;17.90;99.90
23803;DHT22;12082;51.786;6.018;2022-08-18T01:55:38;17.90;99.90
23803;DHT22;12082;51.786;6.018;2022-08-18T01:58:05;18.00;99.90
23803;DHT22;12082;51.786;6.018;2022-08-18T02:00:32;18.00;99.90
23803;DHT22;12082;51.786;6.018;2022-08-18T02:03:00;18.00;99.90
23803;DHT22;12082;51.786;6.018;2022-08-18T02:05:39;18.10;99.90
23803;DHT22;12082;51.786;6.018;2022-08-18T02:08:06;18.10;99.90
23803;DHT22;12082;51.786;6.018;2022-08-18T02:10:32;18.10;99.90
23803;DHT22;12082;51.786;6.018;2022-08-18T02:12:57;18.20;99.90
23803;DHT22;12082;51.786;6.018;2022-08-18T02:15:23;18.20;99.90
23803;DHT22;12082;51.786;6.018;2022-08-18T02:17:49;18.20;99.90
23803;DHT22;12082;51.786;6.018;2022-08-18T02:20:17;18.20;99.90
23803;DHT22;12082;51.786;6.018;2022-08-18T02:22:43;18.30;99.90
23803;DHT22;12082;51.786;6.018;2022-08-18T02:25:10;18.30;99.90
23803;DHT22;12082;51.786;6.018;2022-08-18T02:27:36;18.60;99.90
23803;DHT22;12082;51.786;6.018;2022-08-18T02:30:07;18.30;99.90
23803;DHT22;12082;51.786;6.018;2022-08-18T02:32:34;18.30;99.90
23803;DHT22;12082;51.786;6.018;2022-08-18T02:35:00;18.30;99.90
23803;DHT22;12082;51.786;6.018;2022-08-18T02:37:26;18.30;99.90
23803;DHT22;12082;51.786;6.018;2022-08-18T02:39:51;18.20;99.90
23803;DHT22;12082;51.786;6.018;2022-08-18T02:42:17;18.30;99.90
23803;DHT22;12082;51.786;6.018;2022-08-18T02:44:43;18.30;99.90
23803;DHT22;12082;51.786;6.018;2022-08-18T02:47:09;18.30;99.90
23803;DHT22;12082;51.786;6.018;2022-08-18T02:49:35;18.30;99.90
23803;DHT22;12082;51.786;6.018;2022-08-18T02:52:03;18.30;99.90
23803;DHT22;12082;51.786;6.018;2022-08-18T02:54:29;18.30;99.90
23803;DHT22;12082;51.786;6.018;2022-08-18T02:56:55;18.30;99.90
23803;DHT22;12082;51.786;6.018;2022-08-18T02:59:24;18.30;99.90
23803;DHT22;12082;51.786;6.018;2022-08-18T03:01:54;18.30;99.90
23803;DHT22;12082;51.786;6.018;2022-08-18T03:04:25;18.20;99.90
23803;DHT22;12082;51.786;6.018;2022-08-18T03:06:53;18.20;99.90
23803;DHT22;12082;51.786;6.018;2022-08-18T03:09:18;18.20;99.90
23803;DHT22;12082;51.786;6.018;2022-08-18T03:11:45;18.20;99.90
23803;DHT22;12082;51.786;6.018;2022-08-18T03:14:11;18.10;99.90
23803;DHT22;12082;51.786;6.018;2022-08-18T03:16:39;18.10;99.90
23803;DHT22;12082;51.786;6.018;2022-08-18T03:19:05;18.10;99.90
23803;DHT22;12082;51.786;6.018;2022-08-18T03:21:32;18.10;99.90
23803;DHT22;12082;51.786;6.018;2022-08-18T03:24:02;18.10;99.90
23803;DHT22;12082;51.786;6.018;2022-08-18T03:26:30;18.10;99.90
23803;DHT22;12082;51.786;6.018;2022-08-18T03:28:57;18.10;99.90
23803;DHT22;12082;51.786;6.018;2022-08-18T03:31:25;18.10;99.90
23803;DHT22;12082;51.786;6.018;2022-08-18T03:33:52;18.00;99.90
23803;DHT22;12082;51.786;6.018;2022-08-18T03:36:20;18.00;99.90
23803;DHT22;12082;51.786;6.018;2022-08-18T03:38:48;18.00;99.90
23803;DHT22;12082;51.786;6.018;2022-08-18T03:41:16;18.00;99.90
23803;DHT22;12082;51.786;6.018;2022-08-18T03:43:42;18.00;99.90
23803;DHT22;12082;51.786;6.018;2022-08-18T03:46:11;18.00;99.90
23803;DHT22;12082;51.786;6.018;2022-08-18T03:48:39;18.00;99.90
23803;DHT22;12082;51.786;6.018;2022-08-18T03:51:19;18.00;99.90
23803;DHT22;12082;51.786;6.018;2022-08-18T03:53:47;18.00;99.90
23803;DHT22;12082;51.786;6.018;2022-08-18T03:56:16;18.00;99.90
23803;DHT22;12082;51.786;6.018;2022-08-18T03:58:51;18.00;99.90
23803;DHT22;12082;51.786;6.018;2022-08-18T04:01:21;17.90;99.90
23803;DHT22;12082;51.786;6.018;2022-08-18T04:03:50;17.90;99.90
23803;DHT22;12082;51.786;6.018;2022-08-18T04:06:22;17.80;99.90
23803;DHT22;12082;51.786;6.018;2022-08-18T04:08:53;17.80;99.90
23803;DHT22;12082;51.786;6.018;2022-08-18T04:11:19;17.80;99.90
23803;DHT22;12082;51.786;6.018;2022-08-18T04:13:45;17.80;99.90
23803;DHT22;12082;51.786;6.018;2022-08-18T04:16:11;17.80;99.90
23803;DHT22;12082;51.786;6.018;2022-08-18T04:18:36;17.80;99.90
23803;DHT22;12082;51.786;6.018;2022-08-18T04:21:04;17.70;99.90
23803;DHT22;12082;51.786;6.018;2022-08-18T04:23:36;17.80;99.90
23803;DHT22;12082;51.786;6.018;2022-08-18T04:26:02;17.80;99.90
23803;DHT22;12082;51.786;6.018;2022-08-18T04:28:28;17.80;99.90
23803;DHT22;12082;51.786;6.018;2022-08-18T04:30:54;17.70;99.90
23803;DHT22;12082;51.786;6.018;2022-08-18T04:33:24;17.80;99.90
23803;DHT22;12082;51.786;6.018;2022-08-18T04:35:50;17.80;99.90
23803;DHT22;12082;51.786;6.018;2022-08-18T04:38:16;17.80;99.90
23803;DHT22;12082;51.786;6.018;2022-08-18T04:40:42;17.80;99.90
23803;DHT22;12082;51.786;6.018;2022-08-18T04:43:07;17.80;99.90
23803;DHT22;12082;51.786;6.018;2022-08-18T04:45:41;17.80;99.90
23803;DHT22;12082;51.786;6.018;2022-08-18T04:48:07;17.80;99.90
23803;DHT22;12082;51.786;6.018;2022-08-18T04:50:32;17.80;99.90
23803;DHT22;12082;51.786;6.018;2022-08-18T04:53:00;17.80;99.90
23803;DHT22;12082;51.786;6.018;2022-08-18T04:55:52;17.80;99.90
23803;DHT22;12082;51.786;6.018;2022-08-18T04:58:22;17.80;99.90
23803;DHT22;12082;51.786;6.018;2022-08-18T05:00:57;17.80;99.90
23803;DHT22;12082;51.786;6.018;2022-08-18T05:03:23;17.80;99.90
23803;DHT22;12082;51.786;6.018;2022-08-18T05:05:52;17.80;99.90
23803;DHT22;12082;51.786;6.018;2022-08-18T05:08:18;17.80;99.90
23803;DHT22;12082;51.786;6.018;2022-08-18T05:10:43;17.80;99.90
23803;DHT22;12082;51.786;6.018;2022-08-18T05:13:09;17.90;99.90
23803;DHT22;12082;51.786;6.018;2022-08-18T05:15:34;17.90;99.90
23803;DHT22;12082;51.786;6.018;2022-08-18T05:18:02;17.90;99.90
23803;DHT22;12082;51.786;6.018;2022-08-18T05:20:28;18.00;99.90
23803;DHT22;12082;51.786;6.018;2022-08-18T05:22:54;17.90;99.90
23803;DHT22;12082;51.786;6.018;2022-08-18T05:25:20;18.00;99.90
23803;DHT22;12082;51.786;6.018;2022-08-18T05:27:45;18.00;99.90
23803;DHT22;12082;51.786;6.018;2022-08-18T05:30:11;18.00;99.90
23803;DHT22;12082;51.786;6.018;2022-08-18T05:32:42;18.00;99.90
23803;DHT22;12082;51.786;6.018;2022-08-18T05:35:12;18.00;99.90
23803;DHT22;12082;51.786;6.018;2022-08-18T05:38:24;18.00;99.90
23803;DHT22;12082;51.786;6.018;2022-08-18T05:41:07;18.10;99.90
23803;DHT22;12082;51.786;6.018;2022-08-18T05:43:35;18.10;99.90
23803;DHT22;12082;51.786;6.018;2022-08-18T05:46:02;18.20;99.90
23803;DHT22;12082;51.786;6.018;2022-08-18T05:48:30;18.20;99.90
23803;DHT22;12082;51.786;6.018;2022-08-18T05:50:57;18.30;99.90
23803;DHT22;12082;51.786;6.018;2022-08-18T05:53:24;18.30;99.90
23803;DHT22;12082;51.786;6.018;2022-08-18T05:56:11;18.40;99.90
23803;DHT22;12082;51.786;6.018;2022-08-18T05:58:57;18.40;99.90
23803;DHT22;12082;51.786;6.018;2022-08-18T06:01:38;18.50;99.90
23803;DHT22;12082;51.786;6.018;2022-08-18T06:04:21;18.40;99.90
23803;DHT22;12082;51.786;6.018;2022-08-18T06:06:48;18.50;99.90
23803;DHT22;12082;51.786;6.018;2022-08-18T06:09:23;18.50;99.90
23803;DHT22;12082;51.786;6.018;2022-08-18T06:11:50;18.60;99.90
23803;DHT22;12082;51.786;6.018;2022-08-18T06:14:17;18.70;99.90
23803;DHT22;12082;51.786;6.018;2022-08-18T06:19:35;19.00;99.90
23803;DHT22;12082;51.786;6.018;2022-08-18T06:22:20;18.80;99.90
23803;DHT22;12082;51.786;6.018;2022-08-18T06:25:05;19.10;99.90
23803;DHT22;12082;51.786;6.018;2022-08-18T06:27:36;19.30;99.90
23803;DHT22;12082;51.786;6.018;2022-08-18T06:33:35;19.70;99.90
23803;DHT22;12082;51.786;6.018;2022-08-18T06:36:23;19.90;99.90
23803;DHT22;12082;51.786;6.018;2022-08-18T06:39:13;20.10;99.90
23803;DHT22;12082;51.786;6.018;2022-08-18T06:41:44;20.10;99.90
23803;DHT22;12082;51.786;6.018;2022-08-18T06:44:41;20.00;99.90
23803;DHT22;12082;51.786;6.018;2022-08-18T06:50:18;19.80;99.90
23803;DHT22;12082;51.786;6.018;2022-08-18T06:53:03;19.90;99.90
23803;DHT22;12082;51.786;6.018;2022-08-18T06:55:36;20.00;99.90
23803;DHT22;12082;51.786;6.018;2022-08-18T06:58:21;20.20;99.90
23803;DHT22;12082;51.786;6.018;2022-08-18T07:03:19;20.50;99.90
23803;DHT22;12082;51.786;6.018;2022-08-18T07:08:35;20.80;99.90
23803;DHT22;12082;51.786;6.018;2022-08-18T07:11:21;21.10;99.90
23803;DHT22;12082;51.786;6.018;2022-08-18T07:13:52;21.20;99.90
23803;DHT22;12082;51.786;6.018;2022-08-18T07:18:54;20.90;99.90
23803;DHT22;12082;51.786;6.018;2022-08-18T07:21:32;20.80;99.90
23803;DHT22;12082;51.786;6.018;2022-08-18T07:24:01;20.60;99.90
23803;DHT22;12082;51.786;6.018;2022-08-18T07:26:29;20.50;99.90
23803;DHT22;12082;51.786;6.018;2022-08-18T07:29:12;20.70;99.90
23803;DHT22;12082;51.786;6.018;2022-08-18T07:31:42;21.10;99.90
23803;DHT22;12082;51.786;6.018;2022-08-18T07:34:16;22.00;99.90
23803;DHT22;12082;51.786;6.018;2022-08-18T07:37:00;23.20;99.90
23803;DHT22;12082;51.786;6.018;2022-08-18T07:39:29;24.20;99.90
23803;DHT22;12082;51.786;6.018;2022-08-18T07:42:02;24.80;99.90
23803;DHT22;12082;51.786;6.018;2022-08-18T07:44:44;25.00;99.90
23803;DHT22;12082;51.786;6.018;2022-08-18T07:47:21;24.50;99.90
23803;DHT22;12082;51.786;6.018;2022-08-18T07:49:47;23.80;99.90
23803;DHT22;12082;51.786;6.018;2022-08-18T07:55:03;23.60;99.90
23803;DHT22;12082;51.786;6.018;2022-08-18T07:58:24;23.10;99.90
23803;DHT22;12082;51.786;6.018;2022-08-18T08:01:17;22.90;99.90
23803;DHT22;12082;51.786;6.018;2022-08-18T08:06:32;22.30;99.90
23803;DHT22;12082;51.786;6.018;2022-08-18T08:09:29;22.10;99.90
23803;DHT22;12082;51.786;6.018;2022-08-18T08:12:03;22.40;99.90
23803;DHT22;12082;51.786;6.018;2022-08-18T08:14:59;23.90;99.90
23803;DHT22;12082;51.786;6.018;2022-08-18T08:17:42;25.70;99.90
23803;DHT22;12082;51.786;6.018;2022-08-18T08:20:18;26.30;99.90
23803;DHT22;12082;51.786;6.018;2022-08-18T08:25:52;27.00;99.90
23803;DHT22;12082;51.786;6.018;2022-08-18T08:28:41;26.70;99.90
23803;DHT22;12082;51.786;6.018;2022-08-18T08:31:23;26.00;99.90
23803;DHT22;12082;51.786;6.018;2022-08-18T08:33:55;25.20;99.90
23803;DHT22;12082;51.786;6.018;2022-08-18T08:36:29;24.90;99.90
23803;DHT22;12082;51.786;6.018;2022-08-18T08:39:03;24.90;99.90
23803;DHT22;12082;51.786;6.018;2022-08-18T08:41:46;24.80;99.90
23803;DHT22;12082;51.786;6.018;2022-08-18T08:44:34;24.50;99.90
23803;DHT22;12082;51.786;6.018;2022-08-18T08:47:11;24.60;99.90
23803;DHT22;12082;51.786;6.018;2022-08-18T08:50:06;24.90;99.90
23803;DHT22;12082;51.786;6.018;2022-08-18T08:52:51;24.90;99.90
23803;DHT22;12082;51.786;6.018;2022-08-18T08:55:45;24.60;99.90
23803;DHT22;12082;51.786;6.018;2022-08-18T08:58:18;24.90;99.90
23803;DHT22;12082;51.786;6.018;2022-08-18T09:00:45;26.10;99.90
23803;DHT22;12082;51.786;6.018;2022-08-18T09:03:38;26.80;99.90
23803;DHT22;12082;51.786;6.018;2022-08-18T09:08:51;26.20;99.90
23803;DHT22;12082;51.786;6.018;2022-08-18T09:16:57;24.50;99.90
23803;DHT22;12082;51.786;6.018;2022-08-18T09:22:46;23.80;99.90
23803;DHT22;12082;51.786;6.018;2022-08-18T09:28:38;23.90;99.90
23803;DHT22;12082;51.786;6.018;2022-08-18T09:39:35;23.00;99.90
23803;DHT22;12082;51.786;6.018;2022-08-18T09:42:45;22.80;99.90
23803;DHT22;12082;51.786;6.018;2022-08-18T09:53:14;22.70;99.90
23803;DHT22;12082;51.786;6.018;2022-08-18T09:55:54;22.90;99.90
23803;DHT22;12082;51.786;6.018;2022-08-18T10:06:44;23.80;99.90
23803;DHT22;12082;51.786;6.018;2022-08-18T10:09:27;23.80;99.90
23803;DHT22;12082;51.786;6.018;2022-08-18T10:22:41;23.10;99.90
23803;DHT22;12082;51.786;6.018;2022-08-18T10:25:09;23.00;99.90
23803;DHT22;12082;51.786;6.018;2022-08-18T10:30:43;23.20;99.90
23803;DHT22;12082;51.786;6.018;2022-08-18T10:33:11;23.20;99.90
23803;DHT22;12082;51.786;6.018;2022-08-18T10:40:35;23.40;99.90
23803;DHT22;12082;51.786;6.018;2022-08-18T10:43:16;23.30;99.90
23803;DHT22;12082;51.786;6.018;2022-08-18T10:45:48;23.30;99.90
23803;DHT22;12082;51.786;6.018;2022-08-18T10:48:26;23.30;99.90
23803;DHT22;12082;51.786;6.018;2022-08-18T10:51:19;23.40;99.90
23803;DHT22;12082;51.786;6.018;2022-08-18T10:57:22;23.30;99.90
23803;DHT22;12082;51.786;6.018;2022-08-18T11:00:11;23.20;99.90
23803;DHT22;12082;51.786;6.018;2022-08-18T11:06:07;23.30;99.90
23803;DHT22;12082;51.786;6.018;2022-08-18T11:08:46;23.60;99.90
23803;DHT22;12082;51.786;6.018;2022-08-18T11:11:13;23.50;99.90
23803;DHT22;12082;51.786;6.018;2022-08-18T11:13:53;23.70;99.90
23803;DHT22;12082;51.786;6.018;2022-08-18T11:16:43;23.70;99.90
23803;DHT22;12082;51.786;6.018;2022-08-18T11:19:15;23.80;99.90
23803;DHT22;12082;51.786;6.018;2022-08-18T11:21:44;23.70;99.90
23803;DHT22;12082;51.786;6.018;2022-08-18T11:24:17;23.80;99.90
23803;DHT22;12082;51.786;6.018;2022-08-18T11:26:50;23.90;99.90
23803;DHT22;12082;51.786;6.018;2022-08-18T11:29:35;23.90;99.90
23803;DHT22;12082;51.786;6.018;2022-08-18T11:32:06;23.80;99.90
23803;DHT22;12082;51.786;6.018;2022-08-18T11:39:56;24.00;99.90
23803;DHT22;12082;51.786;6.018;2022-08-18T11:42:28;24.10;99.90
23803;DHT22;12082;51.786;6.018;2022-08-18T11:45:01;24.20;99.90
23803;DHT22;12082;51.786;6.018;2022-08-18T11:47:27;24.50;99.90
23803;DHT22;12082;51.786;6.018;2022-08-18T11:50:08;24.60;99.90
23803;DHT22;12082;51.786;6.018;2022-08-18T11:52:47;24.50;99.90
23803;DHT22;12082;51.786;6.018;2022-08-18T11:55:27;24.70;99.90
23803;DHT22;12082;51.786;6.018;2022-08-18T11:57:56;24.90;99.90
23803;DHT22;12082;51.786;6.018;2022-08-18T12:05:57;24.70;99.90
23803;DHT22;12082;51.786;6.018;2022-08-18T12:08:34;24.60;99.90
23803;DHT22;12082;51.786;6.018;2022-08-18T12:11:03;24.60;99.90
23803;DHT22;12082;51.786;6.018;2022-08-18T12:13:29;24.50;99.90
23803;DHT22;12082;51.786;6.018;2022-08-18T12:16:13;24.50;99.90
23803;DHT22;12082;51.786;6.018;2022-08-18T12:18:40;24.30;99.90
23803;DHT22;12082;51.786;6.018;2022-08-18T12:21:07;24.20;99.90
23803;DHT22;12082;51.786;6.018;2022-08-18T12:23:35;24.20;99.90
23803;DHT22;12082;51.786;6.018;2022-08-18T12:26:01;24.10;99.90
23803;DHT22;12082;51.786;6.018;2022-08-18T12:28:27;24.10;99.90
23803;DHT22;12082;51.786;6.018;2022-08-18T12:30:53;24.10;99.90
23803;DHT22;12082;51.786;6.018;2022-08-18T12:33:18;24.10;99.90
23803;DHT22;12082;51.786;6.018;2022-08-18T12:35:44;24.10;99.90
23803;DHT22;12082;51.786;6.018;2022-08-18T12:38:11;24.00;99.90
23803;DHT22;12082;51.786;6.018;2022-08-18T12:40:37;24.00;99.90
23803;DHT22;12082;51.786;6.018;2022-08-18T12:43:04;24.10;99.90
23803;DHT22;12082;51.786;6.018;2022-08-18T12:45:30;24.20;99.90
23803;DHT22;12082;51.786;6.018;2022-08-18T12:47:55;24.30;99.90
23803;DHT22;12082;51.786;6.018;2022-08-18T12:50:21;24.40;99.90
23803;DHT22;12082;51.786;6.018;2022-08-18T12:52:47;24.60;99.90
23803;DHT22;12082;51.786;6.018;2022-08-18T12:55:13;24.80;99.90
23803;DHT22;12082;51.786;6.018;2022-08-18T12:57:40;25.00;99.90
23803;DHT22;12082;51.786;6.018;2022-08-18T13:00:06;25.20;99.90
23803;DHT22;12082;51.786;6.018;2022-08-18T13:02:33;25.30;99.90
23803;DHT22;12082;51.786;6.018;2022-08-18T13:04:58;25.40;99.90
23803;DHT22;12082;51.786;6.018;2022-08-18T13:07:24;25.70;99.90
23803;DHT22;12082;51.786;6.018;2022-08-18T13:09:50;25.80;99.90
23803;DHT22;12082;51.786;6.018;2022-08-18T13:12:15;25.80;99.90
23803;DHT22;12082;51.786;6.018;2022-08-18T13:14:42;25.70;99.90
23803;DHT22;12082;51.786;6.018;2022-08-18T13:17:08;25.50;99.90
23803;DHT22;12082;51.786;6.018;2022-08-18T13:19:34;25.40;99.90
23803;DHT22;12082;51.786;6.018;2022-08-18T13:22:00;25.30;99.90
23803;DHT22;12082;51.786;6.018;2022-08-18T13:24:26;25.30;99.90
23803;DHT22;12082;51.786;6.018;2022-08-18T13:26:51;25.20;99.90
23803;DHT22;12082;51.786;6.018;2022-08-18T13:29:17;25.00;99.90
23803;DHT22;12082;51.786;6.018;2022-08-18T13:31:44;24.90;99.90
23803;DHT22;12082;51.786;6.018;2022-08-18T13:34:11;24.80;99.90
23803;DHT22;12082;51.786;6.018;2022-08-18T13:36:38;24.60;99.90
23803;DHT22;12082;51.786;6.018;2022-08-18T13:39:14;24.50;99.90
23803;DHT22;12082;51.786;6.018;2022-08-18T13:41:40;24.50;99.90
23803;DHT22;12082;51.786;6.018;2022-08-18T13:44:08;24.50;99.90
23803;DHT22;12082;51.786;6.018;2022-08-18T13:46:34;24.40;99.90
23803;DHT22;12082;51.786;6.018;2022-08-18T13:49:03;24.40;99.90
23803;DHT22;12082;51.786;6.018;2022-08-18T13:51:28;24.50;99.90
23803;DHT22;12082;51.786;6.018;2022-08-18T13:53:54;24.50;99.90
23803;DHT22;12082;51.786;6.018;2022-08-18T13:56:20;24.40;99.90
23803;DHT22;12082;51.786;6.018;2022-08-18T13:58:45;24.20;99.90
23803;DHT22;12082;51.786;6.018;2022-08-18T14:01:11;24.20;99.90
23803;DHT22;12082;51.786;6.018;2022-08-18T14:03:37;24.10;99.90
23803;DHT22;12082;51.786;6.018;2022-08-18T14:06:04;24.00;99.90
23803;DHT22;12082;51.786;6.018;2022-08-18T14:08:30;23.90;99.90
23803;DHT22;12082;51.786;6.018;2022-08-18T14:10:59;23.90;99.90
23803;DHT22;12082;51.786;6.018;2022-08-18T14:13:26;23.90;99.90
23803;DHT22;12082;51.786;6.018;2022-08-18T14:15:53;23.90;99.90
23803;DHT22;12082;51.786;6.018;2022-08-18T14:18:20;24.00;99.90
23803;DHT22;12082;51.786;6.018;2022-08-18T14:20:45;24.00;99.90
23803;DHT22;12082;51.786;6.018;2022-08-18T14:23:29;24.10;99.90
23803;DHT22;12082;51.786;6.018;2022-08-18T14:26:14;24.10;99.90
23803;DHT22;12082;51.786;6.018;2022-08-18T14:28:58;24.20;99.90
23803;DHT22;12082;51.786;6.018;2022-08-18T14:31:23;24.20;99.90
23803;DHT22;12082;51.786;6.018;2022-08-18T14:33:49;24.10;99.90
23803;DHT22;12082;51.786;6.018;2022-08-18T14:36:15;24.20;99.90
23803;DHT22;12082;51.786;6.018;2022-08-18T14:38:41;24.20;99.90
23803;DHT22;12082;51.786;6.018;2022-08-18T14:41:10;24.40;99.90
23803;DHT22;12082;51.786;6.018;2022-08-18T14:43:36;24.50;99.90
23803;DHT22;12082;51.786;6.018;2022-08-18T14:46:03;24.60;99.90
23803;DHT22;12082;51.786;6.018;2022-08-18T14:48:31;24.70;99.90
23803;DHT22;12082;51.786;6.018;2022-08-18T14:50:57;25.00;99.90
23803;DHT22;12082;51.786;6.018;2022-08-18T14:53:30;25.30;99.90
23803;DHT22;12082;51.786;6.018;2022-08-18T14:55:56;25.40;99.90
23803;DHT22;12082;51.786;6.018;2022-08-18T14:58:24;25.40;99.90
23803;DHT22;12082;51.786;6.018;2022-08-18T15:00:58;25.40;99.90
23803;DHT22;12082;51.786;6.018;2022-08-18T15:03:28;25.30;99.90
23803;DHT22;12082;51.786;6.018;2022-08-18T15:05:54;25.50;99.90
23803;DHT22;12082;51.786;6.018;2022-08-18T15:08:20;25.70;99.90
23803;DHT22;12082;51.786;6.018;2022-08-18T15:10:46;25.90;99.90
23803;DHT22;12082;51.786;6.018;2022-08-18T15:13:12;26.10;99.90
23803;DHT22;12082;51.786;6.018;2022-08-18T15:15:38;26.20;99.90
23803;DHT22;12082;51.786;6.018;2022-08-18T15:18:04;26.10;99.40
23803;DHT22;12082;51.786;6.018;2022-08-18T15:20:30;25.80;99.90
23803;DHT22;12082;51.786;6.018;2022-08-18T15:23:00;25.60;99.90
23803;DHT22;12082;51.786;6.018;2022-08-18T15:25:46;25.60;99.90
23803;DHT22;12082;51.786;6.018;2022-08-18T15:28:23;25.80;99.90
23803;DHT22;12082;51.786;6.018;2022-08-18T15:30:50;26.10;99.90
23803;DHT22;12082;51.786;6.018;2022-08-18T15:33:17;26.20;99.90
23803;DHT22;12082;51.786;6.018;2022-08-18T15:35:44;26.40;99.90
23803;DHT22;12082;51.786;6.018;2022-08-18T15:38:15;26.40;99.70
23803;DHT22;12082;51.786;6.018;2022-08-18T15:40:54;26.50;99.70
23803;DHT22;12082;51.786;6.018;2022-08-18T15:43:22;26.70;97.60
23803;DHT22;12082;51.786;6.018;2022-08-18T15:45:49;26.70;97.70
23803;DHT22;12082;51.786;6.018;2022-08-18T15:48:16;26.80;96.80
23803;DHT22;12082;51.786;6.018;2022-08-18T15:50:43;26.80;97.80
23803;DHT22;12082;51.786;6.018;2022-08-18T15:53:14;26.70;99.40
23803;DHT22;12082;51.786;6.018;2022-08-18T15:55:40;26.70;99.30
23803;DHT22;12082;51.786;6.018;2022-08-18T15:58:07;26.60;99.10
23803;DHT22;12082;51.786;6.018;2022-08-18T16:00:33;26.50;99.80
23803;DHT22;12082;51.786;6.018;2022-08-18T16:03:02;26.20;99.90
23803;DHT22;12082;51.786;6.018;2022-08-18T16:05:32;26.10;99.90
23803;DHT22;12082;51.786;6.018;2022-08-18T16:07:58;25.80;99.80
23803;DHT22;12082;51.786;6.018;2022-08-18T16:10:26;25.60;99.20
23803;DHT22;12082;51.786;6.018;2022-08-18T16:12:53;25.50;99.90
23803;DHT22;12082;51.786;6.018;2022-08-18T16:15:21;25.40;99.90
23803;DHT22;12082;51.786;6.018;2022-08-18T16:17:48;25.30;99.90
23803;DHT22;12082;51.786;6.018;2022-08-18T16:20:15;25.30;99.90
23803;DHT22;12082;51.786;6.018;2022-08-18T16:22:42;25.20;99.90
23803;DHT22;12082;51.786;6.018;2022-08-18T16:25:08;25.10;99.90
23803;DHT22;12082;51.786;6.018;2022-08-18T16:27:35;24.90;99.90
23803;DHT22;12082;51.786;6.018;2022-08-18T16:30:06;24.00;99.90
23803;DHT22;12082;51.786;6.018;2022-08-18T16:32:32;24.30;99.90
23803;DHT22;12082;51.786;6.018;2022-08-18T16:34:57;24.10;99.90
23803;DHT22;12082;51.786;6.018;2022-08-18T16:37:24;23.90;99.90
23803;DHT22;12082;51.786;6.018;2022-08-18T16:39:51;23.60;99.90
23803;DHT22;12082;51.786;6.018;2022-08-18T16:42:17;23.50;99.90
23803;DHT22;12082;51.786;6.018;2022-08-18T16:44:43;23.40;99.90
23803;DHT22;12082;51.786;6.018;2022-08-18T16:47:09;23.30;99.90
23803;DHT22;12082;51.786;6.018;2022-08-18T16:49:37;23.20;99.90
23803;DHT22;12082;51.786;6.018;2022-08-18T16:52:02;23.10;99.90
23803;DHT22;12082;51.786;6.018;2022-08-18T16:54:29;23.00;99.90
23803;DHT22;12082;51.786;6.018;2022-08-18T16:56:54;22.80;99.90
23803;DHT22;12082;51.786;6.018;2022-08-18T16:59:20;22.70;99.90
23803;DHT22;12082;51.786;6.018;2022-08-18T17:02:04;22.70;99.90
23803;DHT22;12082;51.786;6.018;2022-08-18T17:04:48;22.60;99.90
23803;DHT22;12082;51.786;6.018;2022-08-18T17:07:16;22.60;99.90
23803;DHT22;12082;51.786;6.018;2022-08-18T17:09:42;22.60;99.90
23803;DHT22;12082;51.786;6.018;2022-08-18T17:12:08;22.60;99.90
23803;DHT22;12082;51.786;6.018;2022-08-18T17:14:34;22.60;99.90
23803;DHT22;12082;51.786;6.018;2022-08-18T17:17:01;22.50;99.90
23803;DHT22;12082;51.786;6.018;2022-08-18T17:19:30;22.50;99.90
23803;DHT22;12082;51.786;6.018;2022-08-18T17:21:57;22.60;99.90
23803;DHT22;12082;51.786;6.018;2022-08-18T17:24:23;22.60;99.90
23803;DHT22;12082;51.786;6.018;2022-08-18T17:27:07;22.60;99.90
23803;DHT22;12082;51.786;6.018;2022-08-18T17:32:37;22.50;99.90
23803;DHT22;12082;51.786;6.018;2022-08-18T17:35:23;22.50;99.90
23803;DHT22;12082;51.786;6.018;2022-08-18T17:37:58;22.40;99.90
23803;DHT22;12082;51.786;6.018;2022-08-18T17:40:39;22.40;99.90